sensor_id;sensor_type;location;lat;lon;timestamp;P1;durP1;ratioP1;P2;durP2;ratioP2
22778;SDS011;11556;51.194;3.800;2023-02-15T00:01:39;147.00;;;73.70;;
22778;SDS011;11556;51.194;3.800;2023-02-15T00:04:05;139.63;;;68.63;;
22778;SDS011;11556;51.194;3.800;2023-02-15T00:06:32;151.25;;;73.68;;
22778;SDS011;11556;51.194;3.800;2023-02-15T00:08:58;146.73;;;71.47;;
22778;SDS011;11556;51.194;3.800;2023-02-15T00:11:24;160.57;;;75.40;;
22778;SDS011;11556;51.194;3.800;2023-02-15T00:14:09;164.80;;;74.85;;
22778;SDS011;11556;51.194;3.800;2023-02-15T00:16:40;157.38;;;75.50;;
22778;SDS011;11556;51.194;3.800;2023-02-15T00:19:07;161.40;;;75.22;;
22778;SDS011;11556;51.194;3.800;2023-02-15T00:21:34;160.90;;;76.03;;
22778;SDS011;11556;51.194;3.800;2023-02-15T00:24:01;162.25;;;76.25;;
22778;SDS011;11556;51.194;3.800;2023-02-15T00:26:29;158.05;;;73.43;;
22778;SDS011;11556;51.194;3.800;2023-02-15T00:28:55;151.57;;;72.70;;
22778;SDS011;11556;51.194;3.800;2023-02-15T00:31:23;148.88;;;72.97;;
22778;SDS011;11556;51.194;3.800;2023-02-15T00:33:49;156.95;;;73.97;;
22778;SDS011;11556;51.194;3.800;2023-02-15T00:36:15;154.30;;;75.35;;
22778;SDS011;11556;51.194;3.800;2023-02-15T00:38:41;160.25;;;75.22;;
22778;SDS011;11556;51.194;3.800;2023-02-15T00:41:07;157.75;;;73.38;;
22778;SDS011;11556;51.194;3.800;2023-02-15T00:43:33;160.68;;;75.72;;
22778;SDS011;11556;51.194;3.800;2023-02-15T00:45:59;168.77;;;77.15;;
22778;SDS011;11556;51.194;3.800;2023-02-15T00:48:26;166.82;;;75.72;;
22778;SDS011;11556;51.194;3.800;2023-02-15T00:50:52;170.65;;;78.13;;
22778;SDS011;11556;51.194;3.800;2023-02-15T00:53:20;184.70;;;81.75;;
22778;SDS011;11556;51.194;3.800;2023-02-15T00:55:46;170.63;;;79.15;;
22778;SDS011;11556;51.194;3.800;2023-02-15T00:58:12;175.48;;;77.53;;
22778;SDS011;11556;51.194;3.800;2023-02-15T01:00:39;167.02;;;75.68;;
22778;SDS011;11556;51.194;3.800;2023-02-15T01:03:06;169.95;;;77.47;;
22778;SDS011;11556;51.194;3.800;2023-02-15T01:05:32;175.73;;;78.85;;
22778;SDS011;11556;51.194;3.800;2023-02-15T01:07:58;169.52;;;75.00;;
22778;SDS011;11556;51.194;3.800;2023-02-15T01:10:24;171.18;;;77.30;;
22778;SDS011;11556;51.194;3.800;2023-02-15T01:12:51;168.52;;;74.25;;
22778;SDS011;11556;51.194;3.800;2023-02-15T01:15:17;175.02;;;77.43;;
22778;SDS011;11556;51.194;3.800;2023-02-15T01:17:43;171.15;;;73.65;;
22778;SDS011;11556;51.194;3.800;2023-02-15T01:20:14;162.65;;;73.00;;
22778;SDS011;11556;51.194;3.800;2023-02-15T01:22:40;173.65;;;74.85;;
22778;SDS011;11556;51.194;3.800;2023-02-15T01:25:05;178.30;;;76.45;;
22778;SDS011;11556;51.194;3.800;2023-02-15T01:27:31;171.73;;;76.45;;
22778;SDS011;11556;51.194;3.800;2023-02-15T01:29:57;174.60;;;74.88;;
22778;SDS011;11556;51.194;3.800;2023-02-15T01:32:22;182.85;;;75.03;;
22778;SDS011;11556;51.194;3.800;2023-02-15T01:34:48;179.00;;;77.68;;
22778;SDS011;11556;51.194;3.800;2023-02-15T01:37:13;180.77;;;77.43;;
22778;SDS011;11556;51.194;3.800;2023-02-15T01:39:39;168.40;;;76.10;;
22778;SDS011;11556;51.194;3.800;2023-02-15T01:42:04;168.20;;;74.15;;
22778;SDS011;11556;51.194;3.800;2023-02-15T01:47:11;168.75;;;76.88;;
22778;SDS011;11556;51.194;3.800;2023-02-15T01:49:40;155.13;;;68.97;;
22778;SDS011;11556;51.194;3.800;2023-02-15T01:52:09;163.63;;;72.63;;
22778;SDS011;11556;51.194;3.800;2023-02-15T01:54:40;162.00;;;73.97;;
22778;SDS011;11556;51.194;3.800;2023-02-15T01:57:09;174.60;;;76.32;;
22778;SDS011;11556;51.194;3.800;2023-02-15T01:59:38;169.60;;;74.72;;
22778;SDS011;11556;51.194;3.800;2023-02-15T02:02:07;166.57;;;73.68;;
22778;SDS011;11556;51.194;3.800;2023-02-15T02:04:41;168.52;;;73.50;;
22778;SDS011;11556;51.194;3.800;2023-02-15T02:07:15;161.52;;;71.60;;
22778;SDS011;11556;51.194;3.800;2023-02-15T02:09:44;171.63;;;76.40;;
22778;SDS011;11556;51.194;3.800;2023-02-15T02:12:10;162.65;;;73.40;;
22778;SDS011;11556;51.194;3.800;2023-02-15T02:14:37;162.32;;;74.70;;
22778;SDS011;11556;51.194;3.800;2023-02-15T02:28:51;179.52;;;74.00;;
22778;SDS011;11556;51.194;3.800;2023-02-15T02:34:51;169.90;;;73.18;;
22778;SDS011;11556;51.194;3.800;2023-02-15T02:37:37;164.38;;;73.53;;
22778;SDS011;11556;51.194;3.800;2023-02-15T02:40:16;168.45;;;73.25;;
22778;SDS011;11556;51.194;3.800;2023-02-15T02:42:52;171.95;;;75.25;;
22778;SDS011;11556;51.194;3.800;2023-02-15T02:45:25;168.40;;;73.82;;
22778;SDS011;11556;51.194;3.800;2023-02-15T02:47:59;175.30;;;72.07;;
22778;SDS011;11556;51.194;3.800;2023-02-15T02:50:30;171.50;;;75.10;;
22778;SDS011;11556;51.194;3.800;2023-02-15T02:52:57;168.13;;;76.18;;
22778;SDS011;11556;51.194;3.800;2023-02-15T03:00:30;162.23;;;73.57;;
22778;SDS011;11556;51.194;3.800;2023-02-15T03:03:02;172.05;;;74.70;;
22778;SDS011;11556;51.194;3.800;2023-02-15T03:05:34;169.75;;;73.22;;
22778;SDS011;11556;51.194;3.800;2023-02-15T03:08:05;171.73;;;74.57;;
22778;SDS011;11556;51.194;3.800;2023-02-15T03:10:34;180.68;;;75.15;;
22778;SDS011;11556;51.194;3.800;2023-02-15T03:13:01;175.82;;;77.15;;
22778;SDS011;11556;51.194;3.800;2023-02-15T03:15:32;181.25;;;76.18;;
22778;SDS011;11556;51.194;3.800;2023-02-15T03:18:20;176.90;;;72.90;;
22778;SDS011;11556;51.194;3.800;2023-02-15T03:20:50;161.05;;;71.00;;
22778;SDS011;11556;51.194;3.800;2023-02-15T03:23:19;167.50;;;77.20;;
22778;SDS011;11556;51.194;3.800;2023-02-15T03:25:57;179.48;;;76.28;;
22778;SDS011;11556;51.194;3.800;2023-02-15T03:28:27;163.75;;;71.18;;
22778;SDS011;11556;51.194;3.800;2023-02-15T03:30:59;194.68;;;76.38;;
22778;SDS011;11556;51.194;3.800;2023-02-15T03:33:28;177.10;;;74.72;;
22778;SDS011;11556;51.194;3.800;2023-02-15T03:38:40;207.57;;;82.80;;
22778;SDS011;11556;51.194;3.800;2023-02-15T03:41:12;196.70;;;82.55;;
22778;SDS011;11556;51.194;3.800;2023-02-15T03:49:24;201.60;;;83.03;;
22778;SDS011;11556;51.194;3.800;2023-02-15T03:52:02;193.68;;;78.47;;
22778;SDS011;11556;51.194;3.800;2023-02-15T03:54:30;218.68;;;83.55;;
22778;SDS011;11556;51.194;3.800;2023-02-15T03:57:13;212.18;;;81.32;;
22778;SDS011;11556;51.194;3.800;2023-02-15T04:00:15;206.52;;;82.45;;
22778;SDS011;11556;51.194;3.800;2023-02-15T04:05:40;205.80;;;80.55;;
22778;SDS011;11556;51.194;3.800;2023-02-15T04:08:07;188.30;;;76.22;;
22778;SDS011;11556;51.194;3.800;2023-02-15T04:10:33;211.52;;;82.15;;
22778;SDS011;11556;51.194;3.800;2023-02-15T04:13:17;194.70;;;76.85;;
22778;SDS011;11556;51.194;3.800;2023-02-15T04:15:43;208.88;;;77.93;;
22778;SDS011;11556;51.194;3.800;2023-02-15T04:18:27;186.60;;;76.68;;
22778;SDS011;11556;51.194;3.800;2023-02-15T04:21:11;189.07;;;76.47;;
22778;SDS011;11556;51.194;3.800;2023-02-15T04:23:55;197.90;;;78.80;;
22778;SDS011;11556;51.194;3.800;2023-02-15T04:26:39;204.70;;;81.05;;
22778;SDS011;11556;51.194;3.800;2023-02-15T04:29:04;197.45;;;81.22;;
22778;SDS011;11556;51.194;3.800;2023-02-15T04:31:30;193.68;;;78.82;;
22778;SDS011;11556;51.194;3.800;2023-02-15T04:33:55;201.63;;;82.22;;
22778;SDS011;11556;51.194;3.800;2023-02-15T04:36:21;199.80;;;81.95;;
22778;SDS011;11556;51.194;3.800;2023-02-15T04:38:47;200.95;;;83.30;;
22778;SDS011;11556;51.194;3.800;2023-02-15T04:41:12;203.63;;;82.15;;
22778;SDS011;11556;51.194;3.800;2023-02-15T04:43:38;194.75;;;81.20;;
22778;SDS011;11556;51.194;3.800;2023-02-15T04:46:03;204.07;;;81.20;;
22778;SDS011;11556;51.194;3.800;2023-02-15T04:48:29;198.73;;;77.93;;
22778;SDS011;11556;51.194;3.800;2023-02-15T04:50:55;184.35;;;76.68;;
22778;SDS011;11556;51.194;3.800;2023-02-15T04:53:21;183.90;;;76.95;;
22778;SDS011;11556;51.194;3.800;2023-02-15T04:55:46;191.30;;;78.22;;
22778;SDS011;11556;51.194;3.800;2023-02-15T04:58:12;191.60;;;75.63;;
22778;SDS011;11556;51.194;3.800;2023-02-15T05:00:37;178.93;;;73.20;;
22778;SDS011;11556;51.194;3.800;2023-02-15T05:03:03;171.23;;;70.75;;
22778;SDS011;11556;51.194;3.800;2023-02-15T05:05:28;191.15;;;77.38;;
22778;SDS011;11556;51.194;3.800;2023-02-15T05:07:54;196.32;;;77.32;;
22778;SDS011;11556;51.194;3.800;2023-02-15T05:10:20;187.80;;;70.63;;
22778;SDS011;11556;51.194;3.800;2023-02-15T05:12:45;174.38;;;65.53;;
22778;SDS011;11556;51.194;3.800;2023-02-15T05:15:11;165.95;;;72.88;;
22778;SDS011;11556;51.194;3.800;2023-02-15T05:17:37;184.25;;;76.57;;
22778;SDS011;11556;51.194;3.800;2023-02-15T05:20:03;189.75;;;76.07;;
22778;SDS011;11556;51.194;3.800;2023-02-15T05:22:29;183.85;;;73.88;;
22778;SDS011;11556;51.194;3.800;2023-02-15T05:24:55;178.07;;;73.65;;
22778;SDS011;11556;51.194;3.800;2023-02-15T05:27:40;192.30;;;74.65;;
22778;SDS011;11556;51.194;3.800;2023-02-15T05:30:24;169.63;;;66.80;;
22778;SDS011;11556;51.194;3.800;2023-02-15T05:32:50;167.63;;;66.75;;
22778;SDS011;11556;51.194;3.800;2023-02-15T05:35:16;189.52;;;76.80;;
22778;SDS011;11556;51.194;3.800;2023-02-15T05:37:42;175.35;;;72.95;;
22778;SDS011;11556;51.194;3.800;2023-02-15T05:40:07;184.02;;;76.50;;
22778;SDS011;11556;51.194;3.800;2023-02-15T05:42:33;185.93;;;75.05;;
22778;SDS011;11556;51.194;3.800;2023-02-15T05:44:59;190.45;;;77.15;;
22778;SDS011;11556;51.194;3.800;2023-02-15T05:47:25;186.95;;;78.13;;
22778;SDS011;11556;51.194;3.800;2023-02-15T05:49:50;189.98;;;79.13;;
22778;SDS011;11556;51.194;3.800;2023-02-15T05:52:16;196.38;;;78.32;;
22778;SDS011;11556;51.194;3.800;2023-02-15T05:54:42;180.25;;;76.00;;
22778;SDS011;11556;51.194;3.800;2023-02-15T05:57:07;185.82;;;77.38;;
22778;SDS011;11556;51.194;3.800;2023-02-15T05:59:33;213.75;;;82.40;;
22778;SDS011;11556;51.194;3.800;2023-02-15T06:01:58;205.98;;;80.13;;
22778;SDS011;11556;51.194;3.800;2023-02-15T06:04:24;197.80;;;75.28;;
22778;SDS011;11556;51.194;3.800;2023-02-15T06:06:50;194.90;;;77.13;;
22778;SDS011;11556;51.194;3.800;2023-02-15T06:09:15;197.48;;;78.60;;
22778;SDS011;11556;51.194;3.800;2023-02-15T06:11:43;194.05;;;76.38;;
22778;SDS011;11556;51.194;3.800;2023-02-15T06:14:09;207.32;;;78.65;;
22778;SDS011;11556;51.194;3.800;2023-02-15T06:16:35;188.70;;;76.55;;
22778;SDS011;11556;51.194;3.800;2023-02-15T06:19:01;219.82;;;77.38;;
22778;SDS011;11556;51.194;3.800;2023-02-15T06:21:27;193.68;;;74.97;;
22778;SDS011;11556;51.194;3.800;2023-02-15T06:23:53;186.15;;;74.53;;
22778;SDS011;11556;51.194;3.800;2023-02-15T06:26:19;209.57;;;77.28;;
22778;SDS011;11556;51.194;3.800;2023-02-15T06:28:44;214.70;;;79.30;;
22778;SDS011;11556;51.194;3.800;2023-02-15T06:31:10;193.63;;;76.70;;
22778;SDS011;11556;51.194;3.800;2023-02-15T06:33:35;209.95;;;73.82;;
22778;SDS011;11556;51.194;3.800;2023-02-15T06:36:01;183.25;;;75.90;;
22778;SDS011;11556;51.194;3.800;2023-02-15T06:38:28;177.35;;;73.60;;
22778;SDS011;11556;51.194;3.800;2023-02-15T06:40:54;183.13;;;71.07;;
22778;SDS011;11556;51.194;3.800;2023-02-15T06:43:19;186.05;;;72.68;;
22778;SDS011;11556;51.194;3.800;2023-02-15T06:45:45;193.55;;;73.80;;
22778;SDS011;11556;51.194;3.800;2023-02-15T06:48:10;201.85;;;76.40;;
22778;SDS011;11556;51.194;3.800;2023-02-15T06:50:36;192.35;;;75.28;;
22778;SDS011;11556;51.194;3.800;2023-02-15T06:53:02;180.30;;;74.68;;
22778;SDS011;11556;51.194;3.800;2023-02-15T06:55:28;201.27;;;76.18;;
22778;SDS011;11556;51.194;3.800;2023-02-15T06:57:53;210.95;;;77.57;;
22778;SDS011;11556;51.194;3.800;2023-02-15T07:00:19;197.05;;;76.43;;
22778;SDS011;11556;51.194;3.800;2023-02-15T07:02:47;205.70;;;76.22;;
22778;SDS011;11556;51.194;3.800;2023-02-15T07:05:12;200.95;;;76.38;;
22778;SDS011;11556;51.194;3.800;2023-02-15T07:07:38;211.75;;;78.93;;
22778;SDS011;11556;51.194;3.800;2023-02-15T07:10:03;233.80;;;77.68;;
22778;SDS011;11556;51.194;3.800;2023-02-15T07:12:29;192.52;;;76.00;;
22778;SDS011;11556;51.194;3.800;2023-02-15T07:15:11;198.45;;;76.47;;
22778;SDS011;11556;51.194;3.800;2023-02-15T07:17:39;201.80;;;76.05;;
22778;SDS011;11556;51.194;3.800;2023-02-15T07:20:06;211.30;;;80.22;;
22778;SDS011;11556;51.194;3.800;2023-02-15T07:22:34;217.23;;;79.93;;
22778;SDS011;11556;51.194;3.800;2023-02-15T07:25:01;221.50;;;81.95;;
22778;SDS011;11556;51.194;3.800;2023-02-15T07:27:28;206.98;;;81.90;;
22778;SDS011;11556;51.194;3.800;2023-02-15T07:29:55;216.55;;;83.70;;
22778;SDS011;11556;51.194;3.800;2023-02-15T07:32:20;211.90;;;85.00;;
22778;SDS011;11556;51.194;3.800;2023-02-15T07:34:46;214.07;;;84.85;;
22778;SDS011;11556;51.194;3.800;2023-02-15T07:37:12;224.40;;;88.50;;
22778;SDS011;11556;51.194;3.800;2023-02-15T07:39:37;221.85;;;85.05;;
22778;SDS011;11556;51.194;3.800;2023-02-15T07:42:03;224.27;;;83.93;;
22778;SDS011;11556;51.194;3.800;2023-02-15T07:44:28;219.40;;;83.47;;
22778;SDS011;11556;51.194;3.800;2023-02-15T07:46:54;232.00;;;87.75;;
22778;SDS011;11556;51.194;3.800;2023-02-15T07:49:19;218.23;;;85.88;;
22778;SDS011;11556;51.194;3.800;2023-02-15T07:51:45;205.35;;;86.53;;
22778;SDS011;11556;51.194;3.800;2023-02-15T07:54:11;207.25;;;85.15;;
22778;SDS011;11556;51.194;3.800;2023-02-15T07:56:36;199.13;;;84.30;;
22778;SDS011;11556;51.194;3.800;2023-02-15T07:59:02;197.85;;;86.93;;
22778;SDS011;11556;51.194;3.800;2023-02-15T08:01:34;200.38;;;85.22;;
22778;SDS011;11556;51.194;3.800;2023-02-15T08:04:01;196.52;;;82.50;;
22778;SDS011;11556;51.194;3.800;2023-02-15T08:06:29;191.10;;;76.13;;
22778;SDS011;11556;51.194;3.800;2023-02-15T08:08:56;176.40;;;75.30;;
22778;SDS011;11556;51.194;3.800;2023-02-15T08:11:23;166.88;;;71.65;;
22778;SDS011;11556;51.194;3.800;2023-02-15T08:14:00;162.88;;;70.68;;
22778;SDS011;11556;51.194;3.800;2023-02-15T08:16:31;160.63;;;70.07;;
22778;SDS011;11556;51.194;3.800;2023-02-15T08:19:11;154.48;;;68.20;;
22778;SDS011;11556;51.194;3.800;2023-02-15T08:21:49;156.27;;;71.22;;
22778;SDS011;11556;51.194;3.800;2023-02-15T08:24:16;136.70;;;66.88;;
22778;SDS011;11556;51.194;3.800;2023-02-15T08:26:44;125.40;;;63.05;;
22778;SDS011;11556;51.194;3.800;2023-02-15T08:29:12;127.00;;;60.08;;
22778;SDS011;11556;51.194;3.800;2023-02-15T08:31:44;111.70;;;56.50;;
22778;SDS011;11556;51.194;3.800;2023-02-15T08:34:10;100.25;;;52.40;;
22778;SDS011;11556;51.194;3.800;2023-02-15T08:36:38;97.88;;;49.67;;
22778;SDS011;11556;51.194;3.800;2023-02-15T08:39:04;95.18;;;48.38;;
22778;SDS011;11556;51.194;3.800;2023-02-15T08:41:32;88.82;;;47.25;;
22778;SDS011;11556;51.194;3.800;2023-02-15T08:44:00;89.13;;;46.00;;
22778;SDS011;11556;51.194;3.800;2023-02-15T08:46:28;80.60;;;44.05;;
22778;SDS011;11556;51.194;3.800;2023-02-15T08:48:55;82.70;;;42.33;;
22778;SDS011;11556;51.194;3.800;2023-02-15T08:51:25;82.10;;;42.03;;
22778;SDS011;11556;51.194;3.800;2023-02-15T08:53:54;80.93;;;40.67;;
22778;SDS011;11556;51.194;3.800;2023-02-15T08:56:22;74.93;;;39.70;;
22778;SDS011;11556;51.194;3.800;2023-02-15T08:58:50;74.18;;;39.60;;
22778;SDS011;11556;51.194;3.800;2023-02-15T09:01:18;77.22;;;39.10;;
22778;SDS011;11556;51.194;3.800;2023-02-15T09:03:46;72.65;;;38.03;;
22778;SDS011;11556;51.194;3.800;2023-02-15T09:06:14;66.15;;;37.60;;
22778;SDS011;11556;51.194;3.800;2023-02-15T09:08:40;76.38;;;38.70;;
22778;SDS011;11556;51.194;3.800;2023-02-15T09:13:31;75.18;;;37.53;;
22778;SDS011;11556;51.194;3.800;2023-02-15T09:16:04;72.53;;;37.95;;
22778;SDS011;11556;51.194;3.800;2023-02-15T09:18:32;73.60;;;38.20;;
22778;SDS011;11556;51.194;3.800;2023-02-15T09:21:07;70.70;;;38.15;;
22778;SDS011;11556;51.194;3.800;2023-02-15T09:23:35;73.85;;;38.42;;
22778;SDS011;11556;51.194;3.800;2023-02-15T09:26:04;67.13;;;37.90;;
22778;SDS011;11556;51.194;3.800;2023-02-15T09:28:32;70.93;;;38.97;;
22778;SDS011;11556;51.194;3.800;2023-02-15T09:31:04;69.03;;;37.35;;
22778;SDS011;11556;51.194;3.800;2023-02-15T09:33:49;69.07;;;36.20;;
22778;SDS011;11556;51.194;3.800;2023-02-15T09:36:18;68.82;;;35.88;;
22778;SDS011;11556;51.194;3.800;2023-02-15T09:38:46;68.03;;;34.60;;
22778;SDS011;11556;51.194;3.800;2023-02-15T09:47:25;66.70;;;35.47;;
22778;SDS011;11556;51.194;3.800;2023-02-15T10:01:06;59.13;;;33.05;;
22778;SDS011;11556;51.194;3.800;2023-02-15T10:12:17;60.72;;;32.47;;
22778;SDS011;11556;51.194;3.800;2023-02-15T10:26:18;57.38;;;31.70;;
22778;SDS011;11556;51.194;3.800;2023-02-15T10:28:55;59.97;;;32.88;;
22778;SDS011;11556;51.194;3.800;2023-02-15T10:31:49;58.58;;;32.35;;
22778;SDS011;11556;51.194;3.800;2023-02-15T10:34:38;62.88;;;32.33;;
22778;SDS011;11556;51.194;3.800;2023-02-15T10:50:59;63.28;;;33.95;;
22778;SDS011;11556;51.194;3.800;2023-02-15T10:56:33;56.80;;;32.25;;
22778;SDS011;11556;51.194;3.800;2023-02-15T10:59:13;56.83;;;32.10;;
22778;SDS011;11556;51.194;3.800;2023-02-15T11:07:55;55.80;;;30.65;;
22778;SDS011;11556;51.194;3.800;2023-02-15T11:10:35;69.13;;;32.42;;
22778;SDS011;11556;51.194;3.800;2023-02-15T11:13:08;59.00;;;32.33;;
22778;SDS011;11556;51.194;3.800;2023-02-15T11:15:41;59.83;;;33.33;;
22778;SDS011;11556;51.194;3.800;2023-02-15T11:20:56;64.95;;;32.88;;
22778;SDS011;11556;51.194;3.800;2023-02-15T11:23:29;58.65;;;31.00;;
22778;SDS011;11556;51.194;3.800;2023-02-15T11:26:00;63.08;;;33.05;;
22778;SDS011;11556;51.194;3.800;2023-02-15T11:31:12;64.30;;;32.63;;
22778;SDS011;11556;51.194;3.800;2023-02-15T11:33:44;57.35;;;31.42;;
22778;SDS011;11556;51.194;3.800;2023-02-15T11:38:45;57.13;;;31.40;;
22778;SDS011;11556;51.194;3.800;2023-02-15T11:41:18;61.95;;;32.05;;
22778;SDS011;11556;51.194;3.800;2023-02-15T11:46:20;65.72;;;31.88;;
22778;SDS011;11556;51.194;3.800;2023-02-15T11:48:46;55.72;;;31.52;;
22778;SDS011;11556;51.194;3.800;2023-02-15T11:51:13;53.70;;;30.60;;
22778;SDS011;11556;51.194;3.800;2023-02-15T11:53:41;58.50;;;31.45;;
22778;SDS011;11556;51.194;3.800;2023-02-15T11:56:13;60.00;;;32.67;;
22778;SDS011;11556;51.194;3.800;2023-02-15T11:59:02;65.90;;;31.73;;
22778;SDS011;11556;51.194;3.800;2023-02-15T12:01:35;62.10;;;32.17;;
22778;SDS011;11556;51.194;3.800;2023-02-15T12:04:28;58.30;;;30.83;;
22778;SDS011;11556;51.194;3.800;2023-02-15T12:10:03;56.90;;;30.33;;
22778;SDS011;11556;51.194;3.800;2023-02-15T12:12:33;57.75;;;31.48;;
22778;SDS011;11556;51.194;3.800;2023-02-15T12:15:01;55.60;;;31.70;;
22778;SDS011;11556;51.194;3.800;2023-02-15T12:17:30;59.67;;;31.10;;
22778;SDS011;11556;51.194;3.800;2023-02-15T12:20:01;67.38;;;31.75;;
22778;SDS011;11556;51.194;3.800;2023-02-15T12:22:52;65.60;;;31.70;;
22778;SDS011;11556;51.194;3.800;2023-02-15T12:25:33;54.83;;;30.65;;
22778;SDS011;11556;51.194;3.800;2023-02-15T12:28:22;58.90;;;29.67;;
22778;SDS011;11556;51.194;3.800;2023-02-15T12:30:52;62.15;;;31.15;;
22778;SDS011;11556;51.194;3.800;2023-02-15T12:36:06;57.20;;;30.50;;
22778;SDS011;11556;51.194;3.800;2023-02-15T12:38:37;62.10;;;29.90;;
22778;SDS011;11556;51.194;3.800;2023-02-15T12:41:04;56.60;;;30.70;;
22778;SDS011;11556;51.194;3.800;2023-02-15T12:43:46;58.65;;;30.42;;
22778;SDS011;11556;51.194;3.800;2023-02-15T12:46:14;70.15;;;31.73;;
22778;SDS011;11556;51.194;3.800;2023-02-15T12:49:07;62.80;;;31.30;;
22778;SDS011;11556;51.194;3.800;2023-02-15T12:56:59;59.63;;;33.22;;
22778;SDS011;11556;51.194;3.800;2023-02-15T12:59:37;62.25;;;32.38;;
22778;SDS011;11556;51.194;3.800;2023-02-15T13:02:41;72.72;;;32.47;;
22778;SDS011;11556;51.194;3.800;2023-02-15T13:07:38;50.40;;;27.52;;
22778;SDS011;11556;51.194;3.800;2023-02-15T13:10:19;44.92;;;26.58;;
22778;SDS011;11556;51.194;3.800;2023-02-15T13:12:53;47.47;;;27.55;;
22778;SDS011;11556;51.194;3.800;2023-02-15T13:18:13;45.47;;;26.75;;
22778;SDS011;11556;51.194;3.800;2023-02-15T13:20:53;43.90;;;27.13;;
22778;SDS011;11556;51.194;3.800;2023-02-15T13:23:28;47.33;;;26.27;;
22778;SDS011;11556;51.194;3.800;2023-02-15T13:25:59;40.78;;;25.27;;
22778;SDS011;11556;51.194;3.800;2023-02-15T13:28:34;43.00;;;25.85;;
22778;SDS011;11556;51.194;3.800;2023-02-15T13:31:08;43.28;;;26.02;;
22778;SDS011;11556;51.194;3.800;2023-02-15T13:33:38;42.33;;;25.30;;
22778;SDS011;11556;51.194;3.800;2023-02-15T13:41:34;43.25;;;26.25;;
22778;SDS011;11556;51.194;3.800;2023-02-15T13:47:17;46.15;;;26.67;;
22778;SDS011;11556;51.194;3.800;2023-02-15T13:50:18;44.13;;;27.30;;
22778;SDS011;11556;51.194;3.800;2023-02-15T13:56:02;44.28;;;25.40;;
22778;SDS011;11556;51.194;3.800;2023-02-15T14:01:31;44.05;;;25.80;;
22778;SDS011;11556;51.194;3.800;2023-02-15T14:06:58;48.50;;;27.25;;
22778;SDS011;11556;51.194;3.800;2023-02-15T14:15:37;43.28;;;25.50;;
22778;SDS011;11556;51.194;3.800;2023-02-15T14:18:18;43.83;;;25.52;;
22778;SDS011;11556;51.194;3.800;2023-02-15T14:26:17;46.70;;;27.05;;
22778;SDS011;11556;51.194;3.800;2023-02-15T14:28:56;45.28;;;26.40;;
22778;SDS011;11556;51.194;3.800;2023-02-15T14:31:35;45.10;;;25.88;;
22778;SDS011;11556;51.194;3.800;2023-02-15T14:34:07;42.95;;;25.60;;
22778;SDS011;11556;51.194;3.800;2023-02-15T14:36:55;43.70;;;27.05;;
22778;SDS011;11556;51.194;3.800;2023-02-15T14:42:15;44.00;;;27.17;;
22778;SDS011;11556;51.194;3.800;2023-02-15T14:47:26;50.33;;;27.50;;
22778;SDS011;11556;51.194;3.800;2023-02-15T14:49:58;45.70;;;26.63;;
22778;SDS011;11556;51.194;3.800;2023-02-15T14:52:24;52.08;;;27.70;;
22778;SDS011;11556;51.194;3.800;2023-02-15T14:57:22;47.10;;;27.08;;
22778;SDS011;11556;51.194;3.800;2023-02-15T14:59:52;52.65;;;27.77;;
22778;SDS011;11556;51.194;3.800;2023-02-15T15:07:48;50.45;;;28.63;;
22778;SDS011;11556;51.194;3.800;2023-02-15T15:17:59;51.63;;;29.70;;
22778;SDS011;11556;51.194;3.800;2023-02-15T15:20:41;47.75;;;28.63;;
22778;SDS011;11556;51.194;3.800;2023-02-15T15:25:45;53.63;;;30.33;;
22778;SDS011;11556;51.194;3.800;2023-02-15T15:34:06;64.32;;;32.15;;
22778;SDS011;11556;51.194;3.800;2023-02-15T15:39:22;72.28;;;33.00;;
22778;SDS011;11556;51.194;3.800;2023-02-15T15:51:19;63.03;;;31.33;;
22778;SDS011;11556;51.194;3.800;2023-02-15T15:53:48;59.70;;;31.08;;
22778;SDS011;11556;51.194;3.800;2023-02-15T15:56:19;60.78;;;31.20;;
22778;SDS011;11556;51.194;3.800;2023-02-15T15:58:57;56.50;;;31.33;;
22778;SDS011;11556;51.194;3.800;2023-02-15T16:01:29;57.17;;;31.25;;
22778;SDS011;11556;51.194;3.800;2023-02-15T16:04:00;58.20;;;31.13;;
22778;SDS011;11556;51.194;3.800;2023-02-15T16:06:33;51.65;;;30.45;;
22778;SDS011;11556;51.194;3.800;2023-02-15T16:11:42;60.63;;;30.75;;
22778;SDS011;11556;51.194;3.800;2023-02-15T16:14:11;61.50;;;32.28;;
22778;SDS011;11556;51.194;3.800;2023-02-15T16:16:51;58.45;;;32.40;;
22778;SDS011;11556;51.194;3.800;2023-02-15T16:19:22;61.25;;;32.60;;
22778;SDS011;11556;51.194;3.800;2023-02-15T16:21:52;55.20;;;30.75;;
22778;SDS011;11556;51.194;3.800;2023-02-15T16:29:50;56.13;;;30.80;;
22778;SDS011;11556;51.194;3.800;2023-02-15T16:32:21;60.05;;;31.60;;
22778;SDS011;11556;51.194;3.800;2023-02-15T16:37:24;52.95;;;30.13;;
22778;SDS011;11556;51.194;3.800;2023-02-15T16:39:52;55.70;;;32.03;;
22778;SDS011;11556;51.194;3.800;2023-02-15T16:42:21;54.83;;;31.25;;
22778;SDS011;11556;51.194;3.800;2023-02-15T16:44:59;55.00;;;31.25;;
22778;SDS011;11556;51.194;3.800;2023-02-15T16:47:33;54.00;;;30.63;;
22778;SDS011;11556;51.194;3.800;2023-02-15T16:50:06;56.40;;;30.85;;
22778;SDS011;11556;51.194;3.800;2023-02-15T16:52:48;57.92;;;31.88;;
22778;SDS011;11556;51.194;3.800;2023-02-15T16:55:20;53.60;;;31.25;;
22778;SDS011;11556;51.194;3.800;2023-02-15T16:57:49;57.08;;;30.75;;
22778;SDS011;11556;51.194;3.800;2023-02-15T17:00:18;55.25;;;30.05;;
22778;SDS011;11556;51.194;3.800;2023-02-15T17:02:55;60.28;;;30.90;;
22778;SDS011;11556;51.194;3.800;2023-02-15T17:05:23;50.95;;;30.25;;
22778;SDS011;11556;51.194;3.800;2023-02-15T17:08:03;56.50;;;31.50;;
22778;SDS011;11556;51.194;3.800;2023-02-15T17:11:20;57.78;;;30.50;;
22778;SDS011;11556;51.194;3.800;2023-02-15T17:14:04;59.58;;;31.10;;
22778;SDS011;11556;51.194;3.800;2023-02-15T17:16:29;63.08;;;31.60;;
22778;SDS011;11556;51.194;3.800;2023-02-15T17:18:58;61.38;;;31.98;;
22778;SDS011;11556;51.194;3.800;2023-02-15T17:21:33;63.15;;;32.10;;
22778;SDS011;11556;51.194;3.800;2023-02-15T17:26:31;56.67;;;29.83;;
22778;SDS011;11556;51.194;3.800;2023-02-15T17:29:01;59.58;;;31.50;;
22778;SDS011;11556;51.194;3.800;2023-02-15T17:31:47;65.88;;;31.42;;
22778;SDS011;11556;51.194;3.800;2023-02-15T17:37:10;56.65;;;30.95;;
22778;SDS011;11556;51.194;3.800;2023-02-15T17:39:38;59.15;;;31.98;;
22778;SDS011;11556;51.194;3.800;2023-02-15T17:42:05;58.58;;;32.22;;
22778;SDS011;11556;51.194;3.800;2023-02-15T17:44:30;60.60;;;31.98;;
22778;SDS011;11556;51.194;3.800;2023-02-15T17:46:56;58.35;;;31.27;;
22778;SDS011;11556;51.194;3.800;2023-02-15T17:49:23;56.00;;;31.67;;
22778;SDS011;11556;51.194;3.800;2023-02-15T17:51:51;62.20;;;31.73;;
22778;SDS011;11556;51.194;3.800;2023-02-15T17:54:17;59.33;;;31.60;;
22778;SDS011;11556;51.194;3.800;2023-02-15T17:57:01;57.35;;;32.05;;
22778;SDS011;11556;51.194;3.800;2023-02-15T17:59:30;60.58;;;31.95;;
22778;SDS011;11556;51.194;3.800;2023-02-15T18:01:55;60.95;;;30.90;;
22778;SDS011;11556;51.194;3.800;2023-02-15T18:04:39;59.08;;;30.92;;